createdAt,value
2019-03-22T00:00:14.817Z,32.30
2019-03-22T00:02:43.252Z,38.20
2019-03-22T00:05:11.717Z,31.27
2019-03-22T00:07:40.155Z,37.33
2019-03-22T00:10:08.985Z,31.70
2019-03-22T00:12:37.404Z,34.33
2019-03-22T00:15:07.855Z,34.70
2019-03-22T00:17:36.274Z,39.60
2019-03-22T00:20:06.769Z,31.93
2019-03-22T00:22:35.199Z,30.07
2019-03-22T00:25:05.603Z,36.60
2019-03-22T00:27:34.107Z,35.00
2019-03-22T00:30:02.588Z,33.00
2019-03-22T00:32:31.006Z,29.50
2019-03-22T00:34:59.413Z,34.73
2019-03-22T00:37:27.850Z,30.20
2019-03-22T00:39:56.286Z,29.27
2019-03-22T00:42:24.691Z,28.10
2019-03-22T00:44:53.110Z,28.73
2019-03-22T00:47:21.518Z,34.13
2019-03-22T00:49:49.925Z,31.03
2019-03-22T00:52:18.350Z,26.50
2019-03-22T00:54:46.787Z,31.87
2019-03-22T00:57:15.209Z,26.40
2019-03-22T00:59:43.687Z,28.37
2019-03-22T01:02:12.109Z,26.13
2019-03-22T01:04:40.588Z,29.67
2019-03-22T01:07:09.087Z,30.63
2019-03-22T01:09:37.522Z,32.17
2019-03-22T01:12:06.014Z,37.17
2019-03-22T01:14:34.486Z,28.30
2019-03-22T01:17:03.050Z,33.13
2019-03-22T01:19:31.457Z,32.70
2019-03-22T01:21:59.867Z,28.20
2019-03-22T01:24:31.160Z,29.83
2019-03-22T01:26:59.616Z,35.27
2019-03-22T01:29:28.090Z,32.27
2019-03-22T01:31:56.511Z,27.57
2019-03-22T01:34:24.910Z,27.20
2019-03-22T01:36:53.597Z,32.40
2019-03-22T01:39:22.130Z,28.80
2019-03-22T01:41:50.586Z,29.20
2019-03-22T01:44:18.991Z,27.27
2019-03-22T01:46:47.403Z,25.80
2019-03-22T01:49:15.826Z,31.20
2019-03-22T01:51:44.229Z,29.80
2019-03-22T01:54:12.635Z,35.83
2019-03-22T01:56:41.087Z,30.03
2019-03-22T01:59:09.526Z,29.03
2019-03-22T02:01:37.920Z,31.43
2019-03-22T02:04:06.330Z,26.53
2019-03-22T02:06:34.746Z,28.83
2019-03-22T02:09:03.838Z,27.00
2019-03-22T02:11:32.259Z,27.23
2019-03-22T02:14:00.681Z,29.97
2019-03-22T02:16:29.092Z,26.83
2019-03-22T02:18:57.496Z,38.53
2019-03-22T02:21:25.914Z,29.90
2019-03-22T02:23:54.315Z,32.40
2019-03-22T02:26:22.713Z,30.00
2019-03-22T02:28:51.115Z,31.60
2019-03-22T02:34:07.429Z,33.40
2019-03-22T02:36:35.850Z,31.37
2019-03-22T02:39:06.204Z,35.43
2019-03-22T02:41:34.703Z,32.50
2019-03-22T02:44:03.162Z,33.33
2019-03-22T02:46:31.551Z,30.53
2019-03-22T02:48:59.964Z,29.47
2019-03-22T02:51:28.413Z,33.57
2019-03-22T02:53:56.796Z,30.90
2019-03-22T02:56:25.230Z,31.77
2019-03-22T02:58:53.615Z,31.63
2019-03-22T03:01:22.136Z,33.37
2019-03-22T03:03:50.535Z,31.60
2019-03-22T03:06:18.960Z,30.50
2019-03-22T03:08:47.346Z,30.37
2019-03-22T03:11:15.744Z,28.43
2019-03-22T03:13:44.190Z,29.13
2019-03-22T03:16:12.613Z,28.93
2019-03-22T03:18:41.010Z,31.10
2019-03-22T03:21:09.502Z,32.20
2019-03-22T03:23:37.983Z,30.20
2019-03-22T03:26:06.529Z,29.33
2019-03-22T03:28:37.233Z,29.53
2019-03-22T03:31:05.157Z,27.90
2019-03-22T03:33:35.644Z,27.70
2019-03-22T03:36:03.910Z,35.17
2019-03-22T03:38:32.405Z,30.30
2019-03-22T03:41:00.807Z,27.67
2019-03-22T03:43:29.227Z,29.93
2019-03-22T03:45:57.630Z,30.47
2019-03-22T03:48:26.060Z,27.50
2019-03-22T03:50:54.487Z,31.30
2019-03-22T03:53:22.929Z,29.13
2019-03-22T03:55:51.396Z,31.83
2019-03-22T03:58:19.830Z,26.77
2019-03-22T04:00:48.242Z,23.43
2019-03-22T04:03:16.646Z,31.83
2019-03-22T04:05:45.068Z,28.37
2019-03-22T04:08:13.472Z,25.50
2019-03-22T04:10:41.886Z,26.03
2019-03-22T04:13:10.281Z,23.73
2019-03-22T04:15:38.718Z,32.03
2019-03-22T04:18:07.119Z,25.57
2019-03-22T04:20:35.565Z,32.03
2019-03-22T04:23:04.033Z,24.17
2019-03-22T04:25:32.541Z,27.03
2019-03-22T04:28:00.977Z,24.80
2019-03-22T04:30:29.403Z,25.10
2019-03-22T04:32:57.849Z,27.67
2019-03-22T04:35:26.227Z,29.53
2019-03-22T04:37:54.619Z,30.77
2019-03-22T04:40:32.085Z,32.10
2019-03-22T04:43:00.511Z,24.63
2019-03-22T04:45:31.561Z,25.67
2019-03-22T04:48:08.798Z,28.40
2019-03-22T04:50:40.522Z,31.50
2019-03-22T04:53:11.978Z,25.80
2019-03-22T04:55:43.584Z,26.73
2019-03-22T04:58:14.437Z,28.70
2019-03-22T05:00:43.670Z,26.40
2019-03-22T05:03:13.435Z,26.10
2019-03-22T05:05:42.988Z,27.30
2019-03-22T05:08:11.534Z,27.17
2019-03-22T05:10:40.397Z,24.70
2019-03-22T05:13:11.515Z,27.23
2019-03-22T05:15:40.765Z,22.20
2019-03-22T05:18:09.525Z,23.63
2019-03-22T05:20:39.974Z,28.70
2019-03-22T05:23:09.617Z,34.53
2019-03-22T05:25:38.673Z,26.80
2019-03-22T05:28:09.534Z,24.30
2019-03-22T05:31:05.204Z,25.07
2019-03-22T05:33:33.591Z,24.73
2019-03-22T05:36:02.034Z,24.17
2019-03-22T05:38:30.449Z,26.73
2019-03-22T05:40:58.870Z,26.67
2019-03-22T05:43:27.430Z,30.00
2019-03-22T05:45:55.919Z,23.17
2019-03-22T05:48:24.333Z,28.67
2019-03-22T05:50:52.741Z,26.60
2019-03-22T05:53:21.232Z,35.77
2019-03-22T05:55:49.647Z,28.90
2019-03-22T05:58:18.260Z,26.43
2019-03-22T06:00:46.665Z,29.33
2019-03-22T06:03:15.163Z,27.83
2019-03-22T06:05:43.583Z,25.60
2019-03-22T06:08:12.091Z,29.97
2019-03-22T06:10:40.529Z,22.90
2019-03-22T06:13:08.937Z,28.23
2019-03-22T06:15:37.432Z,21.27
2019-03-22T06:18:05.873Z,30.60
2019-03-22T06:20:34.298Z,28.13
2019-03-22T06:23:02.690Z,24.50
2019-03-22T06:25:31.123Z,33.40
2019-03-22T06:27:59.524Z,30.17
2019-03-22T06:30:27.936Z,28.53
2019-03-22T06:32:56.376Z,25.20
2019-03-22T06:35:24.842Z,28.70
2019-03-22T06:37:53.270Z,27.03
2019-03-22T06:40:21.748Z,26.93
2019-03-22T06:42:50.153Z,25.13
2019-03-22T06:45:18.558Z,27.87
2019-03-22T06:47:46.990Z,27.30
2019-03-22T06:50:15.469Z,25.20
2019-03-22T06:52:43.914Z,29.93
2019-03-22T06:55:12.462Z,23.63
2019-03-22T06:57:40.950Z,25.30
2019-03-22T07:00:12.054Z,26.20
2019-03-22T07:02:40.431Z,26.43
2019-03-22T07:05:08.940Z,23.83
2019-03-22T07:07:37.347Z,27.30
2019-03-22T07:10:06.987Z,27.23
2019-03-22T07:12:35.483Z,27.00
2019-03-22T07:15:06.173Z,27.07
2019-03-22T07:17:34.670Z,29.87
2019-03-22T07:20:03.249Z,27.73
2019-03-22T07:22:31.677Z,28.33
2019-03-22T07:25:00.266Z,26.93
2019-03-22T07:27:28.789Z,26.90
2019-03-22T07:29:57.243Z,26.97
2019-03-22T07:32:25.658Z,35.23
2019-03-22T07:34:54.234Z,40.87
2019-03-22T07:37:22.657Z,29.17
2019-03-22T07:39:51.093Z,29.27
2019-03-22T07:42:19.508Z,33.90
2019-03-22T07:44:47.910Z,31.70
2019-03-22T07:47:16.366Z,30.17
2019-03-22T07:49:44.767Z,29.67
2019-03-22T07:52:13.201Z,30.93
2019-03-22T07:54:41.695Z,26.67
2019-03-22T07:57:10.135Z,35.90
2019-03-22T07:59:38.548Z,35.30
2019-03-22T08:02:08.000Z,34.17
2019-03-22T08:04:36.446Z,28.53
2019-03-22T08:07:04.907Z,28.13
2019-03-22T08:09:33.339Z,28.47
2019-03-22T08:12:02.174Z,26.33
2019-03-22T08:14:30.567Z,23.43
2019-03-22T08:16:58.991Z,28.77
2019-03-22T08:19:27.444Z,33.57
2019-03-22T08:21:55.817Z,31.33
2019-03-22T08:24:24.253Z,28.83
2019-03-22T08:26:52.664Z,25.43
2019-03-22T08:29:21.077Z,26.33
2019-03-22T08:31:49.569Z,23.90
2019-03-22T08:34:17.976Z,25.87
2019-03-22T08:36:46.410Z,27.00
2019-03-22T08:39:14.807Z,26.80
2019-03-22T08:41:43.232Z,26.70
2019-03-22T08:44:11.640Z,25.83
2019-03-22T08:46:40.041Z,23.70
2019-03-22T08:49:09.637Z,28.00
2019-03-22T08:51:38.200Z,25.90
2019-03-22T08:54:06.692Z,26.70
2019-03-22T08:56:36.235Z,20.03
2019-03-22T08:59:04.827Z,26.13
2019-03-22T09:01:33.231Z,27.50
2019-03-22T09:04:01.636Z,28.53
2019-03-22T09:06:30.183Z,24.83
2019-03-22T09:08:58.552Z,25.73
2019-03-22T09:11:27.013Z,33.57
2019-03-22T09:13:55.605Z,24.90
2019-03-22T09:16:24.102Z,27.97
2019-03-22T09:18:52.539Z,21.27
2019-03-22T09:21:20.926Z,31.10
2019-03-22T09:23:49.500Z,22.73
2019-03-22T09:26:19.988Z,26.20
2019-03-22T09:28:48.115Z,25.20
2019-03-22T09:31:16.576Z,23.53
2019-03-22T09:33:44.994Z,23.30
2019-03-22T09:36:13.539Z,28.70
2019-03-22T09:38:41.936Z,25.30
2019-03-22T09:41:12.538Z,19.73
2019-03-22T09:43:40.960Z,20.93
2019-03-22T09:46:09.443Z,26.13
2019-03-22T09:48:37.922Z,24.43
2019-03-22T09:51:06.290Z,21.77
2019-03-22T09:53:34.720Z,19.97
2019-03-22T09:56:03.251Z,24.57
2019-03-22T09:58:31.676Z,20.80
2019-03-22T10:01:00.195Z,22.10
2019-03-22T10:03:28.575Z,24.47
2019-03-22T10:05:57.009Z,20.70
2019-03-22T10:08:25.448Z,20.53
2019-03-22T10:10:53.902Z,16.67
2019-03-22T10:13:22.293Z,21.00
2019-03-22T10:15:50.814Z,25.20
2019-03-22T10:18:19.193Z,27.23
2019-03-22T10:20:47.650Z,23.03
2019-03-22T10:23:16.052Z,26.27
2019-03-22T10:25:44.588Z,22.80
2019-03-22T10:28:13.003Z,22.10
2019-03-22T10:30:41.429Z,19.60
2019-03-22T10:33:22.077Z,26.20
2019-03-22T10:35:40.067Z,21.47
2019-03-22T10:38:15.956Z,23.20
2019-03-22T10:40:38.662Z,24.83
2019-03-22T10:43:07.080Z,30.97
2019-03-22T10:45:35.553Z,29.67
2019-03-22T10:48:04.011Z,20.80
2019-03-22T10:50:32.459Z,23.43
2019-03-22T10:53:00.914Z,24.03
2019-03-22T10:55:30.702Z,19.60
2019-03-22T10:57:59.417Z,25.57
2019-03-22T11:00:28.223Z,20.10
2019-03-22T11:02:56.644Z,19.50
2019-03-22T11:05:25.093Z,20.00
2019-03-22T11:07:54.457Z,20.77
2019-03-22T11:10:22.859Z,19.03
2019-03-22T11:12:51.297Z,18.53
2019-03-22T11:15:19.705Z,20.73
2019-03-22T11:17:48.145Z,27.03
2019-03-22T11:20:17.269Z,18.10
2019-03-22T11:22:45.762Z,15.93
2019-03-22T11:25:14.293Z,22.80
2019-03-22T11:27:42.716Z,21.27
2019-03-22T11:30:14.456Z,24.33
2019-03-22T11:32:42.880Z,19.70
2019-03-22T11:35:12.326Z,21.53
2019-03-22T11:37:40.792Z,16.77
2019-03-22T11:40:11.665Z,19.90
2019-03-22T11:42:40.073Z,16.77
2019-03-22T11:45:17.429Z,16.73
2019-03-22T11:47:45.845Z,16.23
2019-03-22T11:50:14.509Z,17.63
2019-03-22T11:52:42.922Z,21.47
2019-03-22T11:55:13.275Z,22.57
2019-03-22T11:57:41.681Z,23.93
2019-03-22T12:00:16.228Z,18.00
2019-03-22T12:02:44.699Z,22.83
2019-03-22T12:05:13.979Z,17.70
2019-03-22T12:07:42.374Z,18.50
2019-03-22T12:10:13.335Z,20.13
2019-03-22T12:12:41.760Z,24.30
2019-03-22T12:15:12.725Z,18.63
2019-03-22T12:17:41.218Z,26.97
2019-03-22T12:20:15.966Z,21.53
2019-03-22T12:22:44.486Z,21.90
2019-03-22T12:25:16.098Z,15.23
2019-03-22T12:27:44.625Z,14.57
2019-03-22T12:30:17.501Z,14.53
2019-03-22T12:32:46.430Z,20.27
2019-03-22T12:35:16.868Z,16.50
2019-03-22T12:37:45.529Z,17.83
2019-03-22T12:40:22.355Z,18.63
2019-03-22T12:42:50.921Z,18.43
2019-03-22T12:45:29.940Z,18.17
2019-03-22T12:47:58.415Z,15.90
2019-03-22T12:50:27.386Z,15.00
2019-03-22T12:52:55.946Z,17.70
2019-03-22T12:55:24.503Z,15.87
2019-03-22T12:57:52.990Z,19.50
2019-03-22T13:00:27.436Z,12.93
2019-03-22T13:02:57.211Z,14.63
2019-03-22T13:05:25.763Z,15.90
2019-03-22T13:07:54.262Z,13.87
2019-03-22T13:10:27.680Z,12.10
2019-03-22T13:12:56.185Z,17.10
2019-03-22T13:15:24.694Z,11.17
2019-03-22T13:17:53.144Z,13.93
2019-03-22T13:20:21.717Z,12.27
2019-03-22T13:22:50.142Z,7.77
2019-03-22T13:25:21.020Z,13.03
2019-03-22T13:27:48.869Z,12.57
2019-03-22T13:30:35.362Z,11.83
2019-03-22T13:33:04.633Z,8.00
2019-03-22T13:35:33.065Z,9.10
2019-03-22T13:38:01.736Z,10.37
2019-03-22T13:40:30.233Z,9.23
2019-03-22T13:42:58.724Z,11.03
2019-03-22T13:45:27.198Z,9.63
2019-03-22T13:47:55.713Z,7.23
2019-03-22T13:50:24.666Z,12.10
2019-03-22T13:52:53.081Z,4.77
2019-03-22T13:55:21.578Z,7.80
2019-03-22T13:57:49.983Z,6.10
2019-03-22T14:00:19.169Z,5.20
2019-03-22T14:02:47.561Z,5.63
2019-03-22T14:05:16.033Z,9.50
2019-03-22T14:07:44.472Z,5.40
2019-03-22T14:10:21.810Z,7.17
2019-03-22T14:12:50.258Z,5.40
2019-03-22T14:15:18.643Z,6.83
2019-03-22T14:17:47.062Z,3.80
2019-03-22T14:20:15.481Z,4.40
2019-03-22T14:22:43.907Z,7.63
2019-03-22T14:25:12.382Z,4.50
2019-03-22T14:27:40.797Z,7.30
2019-03-22T14:30:09.773Z,4.70
2019-03-22T14:32:38.328Z,3.27
2019-03-22T14:35:09.503Z,3.57
2019-03-22T14:37:38.006Z,3.70
2019-03-22T14:40:07.038Z,3.80
2019-03-22T14:42:35.522Z,6.33
2019-03-22T14:45:11.315Z,5.00
2019-03-22T14:47:39.730Z,3.97
2019-03-22T14:50:08.502Z,3.10
2019-03-22T14:52:36.974Z,6.00
2019-03-22T14:55:06.825Z,3.93
2019-03-22T14:57:35.308Z,9.13
2019-03-22T15:00:08.419Z,3.87
2019-03-22T15:02:36.833Z,3.90
2019-03-22T15:05:06.710Z,8.50
2019-03-22T15:07:35.105Z,4.50
2019-03-22T15:10:04.780Z,4.73
2019-03-22T15:12:33.198Z,6.30
2019-03-22T15:15:21.449Z,3.50
2019-03-22T15:17:57.139Z,3.33
2019-03-22T15:20:30.220Z,3.73
2019-03-22T15:23:15.289Z,4.37
2019-03-22T15:25:45.365Z,3.60
2019-03-22T15:28:15.449Z,5.23
2019-03-22T15:30:45.535Z,6.17
2019-03-22T15:33:34.321Z,4.03
2019-03-22T15:35:59.628Z,3.37
2019-03-22T15:38:47.708Z,3.40
2019-03-22T15:41:16.356Z,2.80
2019-03-22T15:43:44.790Z,6.53
2019-03-22T15:46:13.265Z,4.57
2019-03-22T15:48:41.664Z,5.63
2019-03-22T15:51:10.096Z,3.20
2019-03-22T15:53:38.522Z,4.00
2019-03-22T15:56:06.948Z,3.87
2019-03-22T15:58:37.027Z,3.37
2019-03-22T16:01:05.581Z,4.53
2019-03-22T16:03:43.815Z,18.23
2019-03-22T16:06:04.197Z,2.10
2019-03-22T16:08:32.699Z,4.53
2019-03-22T16:11:01.108Z,3.07
2019-03-22T16:13:29.544Z,3.90
2019-03-22T16:15:58.040Z,4.70
2019-03-22T16:18:26.440Z,3.07
2019-03-22T16:20:59.957Z,3.20
2019-03-22T16:23:25.005Z,6.90
2019-03-22T16:25:53.427Z,2.90
2019-03-22T16:28:21.857Z,6.80
2019-03-22T16:30:50.262Z,4.97
2019-03-22T16:33:18.684Z,3.20
2019-03-22T16:35:47.118Z,4.00
2019-03-22T16:38:15.603Z,10.60
2019-03-22T16:40:44.101Z,6.77
2019-03-22T16:43:12.720Z,17.70
2019-03-22T16:45:42.659Z,6.67
2019-03-22T16:48:11.237Z,16.20
2019-03-22T16:50:39.825Z,3.17
2019-03-22T16:53:08.413Z,4.40
2019-03-22T16:55:36.924Z,6.97
2019-03-22T16:58:05.870Z,6.40
2019-03-22T17:00:34.949Z,9.43
2019-03-22T17:03:03.611Z,4.70
2019-03-22T17:05:32.039Z,6.33
2019-03-22T17:08:00.506Z,7.83
2019-03-22T17:10:29.004Z,5.00
2019-03-22T17:12:57.469Z,7.77
2019-03-22T17:15:25.921Z,10.13
2019-03-22T17:17:54.375Z,6.97
2019-03-22T17:20:22.828Z,4.40
2019-03-22T17:22:51.225Z,9.07
2019-03-22T17:25:19.651Z,8.27
2019-03-22T17:27:48.186Z,8.50
2019-03-22T17:30:18.272Z,7.23
2019-03-22T17:32:46.787Z,9.80
2019-03-22T17:35:15.333Z,16.07
2019-03-22T17:37:43.872Z,45.40
2019-03-22T17:40:12.249Z,19.47
2019-03-22T17:42:40.657Z,12.53
2019-03-22T17:45:15.640Z,9.70
2019-03-22T17:47:44.092Z,8.30
2019-03-22T17:50:13.972Z,5.67
2019-03-22T17:52:42.622Z,9.50
2019-03-22T17:55:12.099Z,9.77
2019-03-22T17:57:40.616Z,8.30
2019-03-22T18:00:12.071Z,6.57
2019-03-22T18:02:40.507Z,17.13
2019-03-22T18:05:09.738Z,12.90
2019-03-22T18:07:38.273Z,8.67
2019-03-22T18:10:11.062Z,12.43
2019-03-22T18:12:39.618Z,14.47
2019-03-22T18:15:09.979Z,12.30
2019-03-22T18:17:38.462Z,8.60
2019-03-22T18:20:09.930Z,8.40
2019-03-22T18:22:38.430Z,7.60
2019-03-22T18:25:09.143Z,4.60
2019-03-22T18:27:37.528Z,5.50
2019-03-22T18:30:08.287Z,4.40
2019-03-22T18:32:36.714Z,8.23
2019-03-22T18:35:05.783Z,5.90
2019-03-22T18:37:34.264Z,8.43
2019-03-22T18:40:02.659Z,6.13
2019-03-22T18:42:31.389Z,12.73
2019-03-22T18:44:59.861Z,7.40
2019-03-22T18:47:28.294Z,7.30
2019-03-22T18:49:56.715Z,15.73
2019-03-22T18:52:25.254Z,17.37
2019-03-22T18:54:53.663Z,11.03
2019-03-22T18:57:25.245Z,23.87
2019-03-22T18:59:53.649Z,24.23
2019-03-22T19:02:22.058Z,13.00
2019-03-22T19:04:50.459Z,8.93
2019-03-22T19:07:18.887Z,6.90
2019-03-22T19:09:47.312Z,8.40
2019-03-22T19:12:15.755Z,15.90
2019-03-22T19:14:44.467Z,11.17
2019-03-22T19:17:12.864Z,14.27
2019-03-22T19:19:41.292Z,15.10
2019-03-22T19:22:09.720Z,12.20
2019-03-22T19:24:38.130Z,10.07
2019-03-22T19:27:06.619Z,9.80
2019-03-22T19:29:35.129Z,24.80
2019-03-22T19:32:13.152Z,21.70
2019-03-22T19:34:33.849Z,16.43
2019-03-22T19:37:02.266Z,10.67
2019-03-22T19:39:30.786Z,12.00
2019-03-22T19:41:59.181Z,9.27
2019-03-22T19:44:27.720Z,14.00
2019-03-22T19:46:56.285Z,11.53
2019-03-22T19:49:24.703Z,14.83
2019-03-22T19:51:53.201Z,11.50
2019-03-22T19:54:21.614Z,9.23
2019-03-22T19:56:50.062Z,11.53
2019-03-22T19:59:18.537Z,15.80
2019-03-22T20:01:46.968Z,17.10
2019-03-22T20:04:15.379Z,16.63
2019-03-22T20:06:43.879Z,19.43
2019-03-22T20:09:12.406Z,17.17
2019-03-22T20:11:40.941Z,16.57
2019-03-22T20:14:09.417Z,16.70
2019-03-22T20:16:37.837Z,18.80
2019-03-22T20:19:06.254Z,15.87
2019-03-22T20:21:34.875Z,12.80
2019-03-22T20:24:03.285Z,11.80
2019-03-22T20:26:31.711Z,12.77
2019-03-22T20:29:00.142Z,12.37
2019-03-22T20:31:28.556Z,15.57
2019-03-22T20:33:57.036Z,12.13
2019-03-22T20:36:25.442Z,32.27
2019-03-22T20:38:53.853Z,29.57
2019-03-22T20:41:22.277Z,23.97
2019-03-22T20:43:50.700Z,14.70
2019-03-22T20:46:19.122Z,13.67
2019-03-22T20:48:47.550Z,12.37
2019-03-22T20:51:15.964Z,13.77
2019-03-22T20:53:44.473Z,10.27
2019-03-22T20:56:12.880Z,9.83
2019-03-22T20:58:41.299Z,16.70
2019-03-22T21:01:09.813Z,24.03
2019-03-22T21:03:38.222Z,32.73
2019-03-22T21:06:06.768Z,36.73
2019-03-22T21:08:35.268Z,29.17
2019-03-22T21:11:03.785Z,20.90
2019-03-22T21:13:32.155Z,11.00
2019-03-22T21:16:00.648Z,14.73
2019-03-22T21:18:29.060Z,11.23
2019-03-22T21:20:57.500Z,13.77
2019-03-22T21:23:35.759Z,7.30
2019-03-22T21:25:56.078Z,12.97
2019-03-22T21:28:24.518Z,13.67
2019-03-22T21:30:52.937Z,11.87
2019-03-22T21:33:21.347Z,12.43
2019-03-22T21:35:49.754Z,10.90
2019-03-22T21:38:18.150Z,12.70
2019-03-22T21:40:46.597Z,9.47
2019-03-22T21:43:14.997Z,9.37
2019-03-22T21:45:43.447Z,6.43
2019-03-22T21:48:11.837Z,9.93
2019-03-22T21:50:40.288Z,7.13
2019-03-22T21:53:08.702Z,9.30
2019-03-22T21:55:37.413Z,7.03
2019-03-22T21:58:05.809Z,9.20
2019-03-22T22:00:34.249Z,10.03
2019-03-22T22:03:02.674Z,10.10
2019-03-22T22:05:31.080Z,7.57
2019-03-22T22:07:59.522Z,9.40
2019-03-22T22:10:27.919Z,16.17
2019-03-22T22:12:56.372Z,8.60
2019-03-22T22:15:24.810Z,7.07
2019-03-22T22:17:53.185Z,8.00
2019-03-22T22:20:28.927Z,8.50
2019-03-22T22:22:51.828Z,16.87
2019-03-22T22:25:20.233Z,8.13
2019-03-22T22:27:48.644Z,10.43
2019-03-22T22:30:17.147Z,11.47
2019-03-22T22:32:45.569Z,9.30
2019-03-22T22:35:14.648Z,10.87
2019-03-22T22:37:43.141Z,7.23
2019-03-22T22:40:12.894Z,8.83
2019-03-22T22:42:41.373Z,8.20
2019-03-22T22:45:13.116Z,8.50
2019-03-22T22:47:41.560Z,10.13
2019-03-22T22:50:13.131Z,12.00
2019-03-22T22:52:41.536Z,12.67
2019-03-22T22:55:10.408Z,13.70
2019-03-22T22:57:38.824Z,9.33
2019-03-22T23:00:10.269Z,7.70
2019-03-22T23:02:38.689Z,6.33
2019-03-22T23:05:07.167Z,9.73
2019-03-22T23:07:35.700Z,14.50
2019-03-22T23:10:05.867Z,16.37
2019-03-22T23:12:34.456Z,11.00
2019-03-22T23:15:03.151Z,8.80
2019-03-22T23:17:31.535Z,4.97
2019-03-22T23:19:59.967Z,9.73
2019-03-22T23:22:28.383Z,8.37
2019-03-22T23:24:56.853Z,6.37
2019-03-22T23:27:25.342Z,7.67
2019-03-22T23:29:53.736Z,6.77
2019-03-22T23:32:22.174Z,6.27
2019-03-22T23:34:58.679Z,7.70
2019-03-22T23:37:20.732Z,14.87
2019-03-22T23:39:49.176Z,8.77
2019-03-22T23:42:17.572Z,11.20
2019-03-22T23:44:45.995Z,8.30
2019-03-22T23:47:14.474Z,8.03
2019-03-22T23:49:42.944Z,7.90
2019-03-22T23:52:11.355Z,7.83
2019-03-22T23:54:39.779Z,13.20
2019-03-22T23:57:08.266Z,8.20
2019-03-22T23:59:36.696Z,6.87
